Time;durP1;ratioP1;P1;durP2;ratioP2;P2;SDS_P1;SDS_P2;PMS_P1;PMS_P2;Temp;Humidity;BMP_temperature;BMP_pressure;BME280_temperature;BME280_humidity;BME280_pressure;Samples;Min_cycle;Max_cycle;Signal;HPM_P1;HPM_P2
2022/01/21 00:03:56;;;;;;;1.20;0.77;;;;;;;;;;20830196;28;20508;-58
2022/01/21 00:13:59;;;;;;;3.53;1.90;;;;;;;;;;20829109;28;20080;-57
2022/01/21 00:34:21;;;;;;;3.53;2.00;;;;;;;;;;20832783;28;20049;-56
2022/01/21 00:44:23;;;;;;;3.63;2.00;;;;;;;;;;20843836;28;20107;-56
2022/01/21 00:54:25;;;;;;;3.53;2.20;;;;;;;;;;20840687;28;20065;-57
2022/01/21 01:04:27;;;;;;;4.63;2.85;;;;;;;;;;20841525;28;20474;-58
2022/01/21 01:35:12;;;;;;;3.30;2.08;;;;;;;;;;20846203;28;20050;-57
2022/01/21 01:55:35;;;;;;;3.40;1.92;;;;;;;;;;20854862;28;20493;-59
2022/01/21 02:05:38;;;;;;;5.53;2.30;;;;;;;;;;20857185;28;20041;-57
2022/01/21 02:15:42;;;;;;;2.88;1.90;;;;;;;;;;20875282;28;20123;-59
2022/01/21 02:25:44;;;;;;;4.53;2.30;;;;;;;;;;20887576;28;20045;-57
2022/01/21 02:35:45;;;;;;;3.58;2.03;;;;;;;;;;20857406;28;20053;-57
2022/01/21 02:45:48;;;;;;;3.55;1.95;;;;;;;;;;20871160;28;20045;-56
2022/01/21 02:55:53;;;;;;;2.70;1.80;;;;;;;;;;20846909;28;20050;-57
2022/01/21 03:05:58;;;;;;;2.60;1.70;;;;;;;;;;20836207;28;20045;-59
2022/01/21 03:15:59;;;;;;;3.42;2.10;;;;;;;;;;20833963;28;20510;-56
2022/01/21 03:26:02;;;;;;;3.75;2.20;;;;;;;;;;20834215;28;20091;-65
2022/01/21 03:36:04;;;;;;;2.70;1.60;;;;;;;;;;20833607;28;20096;-63
2022/01/21 03:46:14;;;;;;;2.60;1.70;;;;;;;;;;20833482;28;20068;-66
2022/01/21 03:56:18;;;;;;;3.70;1.83;;;;;;;;;;20851758;28;20077;-58
2022/01/21 04:06:20;;;;;;;4.13;2.10;;;;;;;;;;20849235;28;20057;-69
2022/01/21 04:16:24;;;;;;;3.83;1.98;;;;;;;;;;20860707;28;20049;-56
2022/01/21 04:26:28;;;;;;;3.95;1.75;;;;;;;;;;20852146;28;20049;-61
2022/01/21 04:36:30;;;;;;;4.68;1.92;;;;;;;;;;20856247;28;20482;-58
2022/01/21 04:56:58;;;;;;;3.60;2.40;;;;;;;;;;20850741;28;20114;-59
2022/01/21 05:07:02;;;;;;;3.65;2.35;;;;;;;;;;20858091;28;20099;-57
2022/01/21 05:17:06;;;;;;;4.07;2.20;;;;;;;;;;20851752;28;20080;-56
2022/01/21 05:27:10;;;;;;;2.78;1.98;;;;;;;;;;20844836;28;20045;-56
2022/01/21 05:37:12;;;;;;;4.03;2.10;;;;;;;;;;20849537;28;20053;-56
2022/01/21 05:47:15;;;;;;;7.18;2.53;;;;;;;;;;20844929;28;20053;-56
2022/01/21 05:57:20;;;;;;;3.92;2.13;;;;;;;;;;20841578;28;20505;-57
2022/01/21 06:07:23;;;;;;;5.18;2.17;;;;;;;;;;20839997;28;20045;-56
2022/01/21 06:17:25;;;;;;;3.22;2.22;;;;;;;;;;20839229;28;20424;-57
2022/01/21 06:27:30;;;;;;;2.75;1.80;;;;;;;;;;20848754;28;20084;-58
2022/01/21 06:37:33;;;;;;;4.17;2.30;;;;;;;;;;20847919;28;20049;-60
2022/01/21 06:47:46;;;;;;;3.85;2.40;;;;;;;;;;20846563;28;20057;-57
2022/01/21 06:57:48;;;;;;;8.05;4.25;;;;;;;;;;20852082;28;20049;-65
2022/01/21 07:07:51;;;;;;;7.20;2.88;;;;;;;;;;20838159;28;20112;-59
2022/01/21 07:17:57;;;;;;;6.32;3.08;;;;;;;;;;20841615;28;20057;-57
2022/01/21 07:28:01;;;;;;;9.45;3.85;;;;;;;;;;20836732;28;20134;-59
2022/01/21 07:38:03;;;;;;;4.72;2.80;;;;;;;;;;20837450;28;20137;-65
2022/01/21 07:48:08;;;;;;;13.13;3.63;;;;;;;;;;20852761;28;20049;-69
2022/01/21 07:58:32;;;;;;;12.23;3.47;;;;;;;;;;20862289;28;20053;-64
2022/01/21 08:08:54;;;;;;;6.40;3.20;;;;;;;;;;20851240;28;20536;-57
2022/01/21 08:19:15;;;;;;;5.38;2.92;;;;;;;;;;20849060;28;20053;-61
2022/01/21 08:29:33;;;;;;;5.72;3.22;;;;;;;;;;20849910;28;20050;-64
2022/01/21 08:39:46;;;;;;;7.00;3.88;;;;;;;;;;20851510;28;20132;-59
2022/01/21 08:49:52;;;;;;;9.70;4.27;;;;;;;;;;20857307;28;20049;-60
2022/01/21 08:59:57;;;;;;;10.80;4.73;;;;;;;;;;20852082;28;20432;-66
2022/01/21 09:10:05;;;;;;;9.55;5.07;;;;;;;;;;20865739;28;20079;-64
2022/01/21 09:20:20;;;;;;;10.73;5.17;;;;;;;;;;20862625;28;20084;-58
2022/01/21 09:30:22;;;;;;;8.90;6.05;;;;;;;;;;20844825;28;20057;-58
2022/01/21 09:40:30;;;;;;;6.67;4.53;;;;;;;;;;20841375;28;20096;-57
2022/01/21 09:50:40;;;;;;;11.07;5.43;;;;;;;;;;20857594;28;20448;-56
2022/01/21 10:00:44;;;;;;;14.45;7.63;;;;;;;;;;20846925;28;20057;-57
2022/01/21 10:10:46;;;;;;;11.38;4.85;;;;;;;;;;20839742;28;20470;-57
2022/01/21 10:21:04;;;;;;;19.00;8.70;;;;;;;;;;20835546;28;20049;-56
2022/01/21 10:31:11;;;;;;;8.38;3.78;;;;;;;;;;20840061;28;20507;-57
2022/01/21 10:41:15;;;;;;;6.82;3.67;;;;;;;;;;20835787;28;20046;-57
2022/01/21 10:51:24;;;;;;;8.85;4.18;;;;;;;;;;20834473;28;20074;-58
2022/01/21 11:01:29;;;;;;;8.00;3.45;;;;;;;;;;20833008;28;20053;-56
2022/01/21 11:11:32;;;;;;;12.77;4.00;;;;;;;;;;20830633;28;20081;-58
2022/01/21 11:21:39;;;;;;;5.63;2.70;;;;;;;;;;20827343;28;20505;-58
2022/01/21 11:31:40;;;;;;;8.85;3.55;;;;;;;;;;20827748;28;20053;-58
2022/01/21 11:41:43;;;;;;;10.68;3.80;;;;;;;;;;20829307;28;20051;-57
2022/01/21 11:51:45;;;;;;;12.90;3.92;;;;;;;;;;20830368;28;20045;-59
2022/01/21 12:01:48;;;;;;;7.72;3.80;;;;;;;;;;20827313;28;20048;-57
2022/01/21 12:11:57;;;;;;;8.65;4.47;;;;;;;;;;20826407;28;20065;-57
2022/01/21 12:22:10;;;;;;;8.98;4.38;;;;;;;;;;20828175;28;20052;-55
2022/01/21 12:32:29;;;;;;;11.50;4.90;;;;;;;;;;20835223;28;20057;-55
2022/01/21 12:42:38;;;;;;;6.93;3.80;;;;;;;;;;20841600;28;20128;-58
2022/01/21 13:02:53;;;;;;;6.22;3.58;;;;;;;;;;20836448;28;20432;-56
2022/01/21 13:23:09;;;;;;;7.75;4.00;;;;;;;;;;20838989;28;20049;-54
2022/01/21 13:33:13;;;;;;;3.03;1.53;;;;;;;;;;20830523;28;20389;-53
2022/01/21 13:43:17;;;;;;;3.15;1.95;;;;;;;;;;20837234;28;20120;-54
2022/01/21 13:53:22;;;;;;;2.67;1.55;;;;;;;;;;20837477;28;20080;-54
2022/01/21 14:03:29;;;;;;;6.28;1.73;;;;;;;;;;20837434;28;20446;-53
2022/01/21 14:13:32;;;;;;;2.00;1.30;;;;;;;;;;20835009;28;20049;-54
2022/01/21 14:23:37;;;;;;;5.22;1.90;;;;;;;;;;20834400;28;20052;-54
2022/01/21 14:33:40;;;;;;;3.37;1.70;;;;;;;;;;20833421;28;20046;-54
2022/01/21 14:43:49;;;;;;;4.55;1.20;;;;;;;;;;20832863;28;20515;-55
2022/01/21 14:53:55;;;;;;;2.92;1.50;;;;;;;;;;20831942;28;20049;-54
2022/01/21 15:03:57;;;;;;;1.67;1.02;;;;;;;;;;20831919;28;20064;-55
2022/01/21 15:14:33;;;;;;;2.33;1.30;;;;;;;;;;20830869;28;20156;-53
2022/01/21 15:24:35;;;;;;;4.30;1.10;;;;;;;;;;20830827;28;20126;-54
2022/01/21 15:34:38;;;;;;;2.63;1.55;;;;;;;;;;20830167;28;20061;-54
2022/01/21 15:44:40;;;;;;;3.75;1.08;;;;;;;;;;20829923;28;20049;-55
2022/01/21 15:54:42;;;;;;;3.38;1.50;;;;;;;;;;20829882;28;20194;-56
2022/01/21 16:04:44;;;;;;;4.95;1.17;;;;;;;;;;20833488;28;20045;-54
2022/01/21 16:14:46;;;;;;;3.58;1.60;;;;;;;;;;20841746;28;20514;-55
2022/01/21 16:24:48;;;;;;;3.88;1.35;;;;;;;;;;20836690;28;20050;-61
2022/01/21 16:34:50;;;;;;;2.60;1.10;;;;;;;;;;20836462;28;20132;-61
2022/01/21 16:44:52;;;;;;;4.25;1.20;;;;;;;;;;20836532;28;20143;-69
2022/01/21 16:54:54;;;;;;;2.78;1.02;;;;;;;;;;20837623;28;20127;-60
2022/01/21 17:04:56;;;;;;;8.25;4.25;;;;;;;;;;20837436;28;20042;-64
2022/01/21 17:14:58;;;;;;;5.80;1.30;;;;;;;;;;20790267;28;1317051;-59
2022/01/21 17:25:00;;;;;;;2.88;1.30;;;;;;;;;;20839140;28;20061;-61
2022/01/21 17:35:02;;;;;;;4.32;1.48;;;;;;;;;;20837792;28;20053;-64
2022/01/21 17:45:05;;;;;;;3.17;1.13;;;;;;;;;;20836531;28;20053;-63
2022/01/21 17:55:07;;;;;;;4.97;1.83;;;;;;;;;;20836044;28;20208;-63
2022/01/21 18:05:09;;;;;;;3.65;1.50;;;;;;;;;;20834120;28;20412;-65
2022/01/21 18:15:12;;;;;;;4.18;1.88;;;;;;;;;;20833472;28;20456;-66
2022/01/21 18:25:15;;;;;;;3.67;1.60;;;;;;;;;;20832640;28;20045;-58
2022/01/21 18:35:16;;;;;;;4.55;2.28;;;;;;;;;;20832405;28;20060;-59
2022/01/21 18:45:30;;;;;;;4.43;1.50;;;;;;;;;;20830717;28;20128;-62
2022/01/21 18:55:32;;;;;;;7.60;2.78;;;;;;;;;;20830477;28;20053;-62
2022/01/21 19:05:35;;;;;;;6.38;1.98;;;;;;;;;;20829195;28;20045;-62
2022/01/21 19:15:37;;;;;;;4.22;1.55;;;;;;;;;;20829001;28;20115;-66
2022/01/21 19:25:52;;;;;;;2.92;1.40;;;;;;;;;;20828727;28;20049;-62
2022/01/21 19:35:56;;;;;;;2.95;1.40;;;;;;;;;;20826800;28;20511;-68
2022/01/21 19:46:04;;;;;;;3.27;1.67;;;;;;;;;;20827744;28;20045;-62
2022/01/21 19:56:07;;;;;;;4.85;2.00;;;;;;;;;;20827454;28;20057;-62
2022/01/21 20:16:15;;;;;;;3.08;1.70;;;;;;;;;;20826637;28;20060;-63
2022/01/21 20:26:17;;;;;;;;;;;;;;;;;;20827778;28;20057;-61
2022/01/21 20:36:28;;;;;;;3.30;1.33;;;;;;;;;;20831336;28;19951;-62
2022/01/21 20:46:33;;;;;;;8.48;1.60;;;;;;;;;;20829051;28;20214;-62
2022/01/21 20:56:35;;;;;;;3.38;1.70;;;;;;;;;;20839084;28;20057;-61
2022/01/21 21:06:39;;;;;;;4.00;1.70;;;;;;;;;;20846062;28;20041;-61
2022/01/21 21:16:42;;;;;;;4.18;2.03;;;;;;;;;;20843721;28;20091;-61
2022/01/21 21:26:53;;;;;;;5.80;1.60;;;;;;;;;;20842565;28;20081;-63
2022/01/21 22:22:50;;;;;;;5.97;1.35;;;;;;;;;;20797699;28;20100;-62
2022/01/21 23:00:47;;;;;;;4.13;1.50;;;;;;;;;;20745915;28;20081;-61
2022/01/21 23:10:49;;;;;;;2.72;1.42;;;;;;;;;;20752308;28;20077;-62
2022/01/21 23:20:54;;;;;;;3.28;1.40;;;;;;;;;;20772603;28;20082;-63
2022/01/21 23:30:58;;;;;;;3.50;1.53;;;;;;;;;;20832512;28;20053;-61
2022/01/21 23:41:12;;;;;;;3.38;1.35;;;;;;;;;;20831686;28;20493;-62
2022/01/21 23:51:20;;;;;;;3.85;2.03;;;;;;;;;;20831614;28;20053;-63
